Thunder radar more information blitzortung!


Radar de pluja more information rain snow radar


Visita la nostra xarxa de llocs de meteo:

Template documentation
and downloads

And another site



No particular awareness of the weather is required.    There are no Weather-warnings

Pagina Historial Weather Underground text

Diari Resum May 26, 2017 Unitats:  Tant    Imperial   Mètric
« Previous Dia
SegĂźent Dia »
Diari Setmana Mensual Anual Personalitzada
  Maxima: Minima: Media:
Temperatura: 81.5 °F /  27.5 °C 59.5 °F /  15.3 °C 72 °F /  22.2 °C
Punt de rosada: 57.7 °F /  14.3 °C 46.6 °F /  8.1 °C 55 °F /  12.8 °C
Humitat: 82 % 42 % 57 %
Wind Speed: 12.7 mph /  20.4 km/h - 5.2 mph /  8.3 km/h
RĂ fegues de vent: 12.7 mph /  20.4 km/h - -
Vent:- - East
Pression baro: 30 in /  1015.8 hPa 29.9 in /  1011.7 hPa -
Precipitacions: 0 in /  0.0 mm    
Historical Graphs
 
 
Dades de taula per May 26, 2017
Temps Temperatura Punt de rosada Pression baro Vent Wind Speed RĂ fegues de vent Humitat Rainfall Rate (Hourly)
00:00 61.3 °F /  16.3 °C 47.8 °F /  8.8 °C 29.9 in /  1013.8 hPa Calm   2 mph /  3.2 km/h 61 % 0 in /  0.0 mm
00:03 70.9 °F /  21.6 °C 46.6 °F /  8.1 °C 29.9 in /  1011.7 hPa SW 1.2 mph /  1.9 km/h 1.2 mph /  1.9 km/h 42 % 0 in /  0.0 mm
00:08 70.7 °F /  21.5 °C 46.6 °F /  8.1 °C 29.9 in /  1011.7 hPa WSW 1.4 mph /  2.3 km/h 1.4 mph /  2.3 km/h 42 % 0 in /  0.0 mm
00:10 61.2 °F /  16.2 °C 47.1 °F /  8.4 °C 29.9 in /  1013.8 hPa Calm     60 % 0 in /  0.0 mm
00:13 70.5 °F /  21.4 °C 46.9 °F /  8.3 °C 29.9 in /  1011.7 hPa WSW 1.2 mph /  1.9 km/h 1.2 mph /  1.9 km/h 43 % 0 in /  0.0 mm
00:20 61.2 °F /  16.2 °C 47.1 °F /  8.4 °C 29.9 in /  1013.8 hPa Calm     60 % 0 in /  0.0 mm
00:30 61.5 °F /  16.4 °C 48.4 °F /  9.1 °C 29.9 in /  1012.8 hPa WSW 1 mph /  1.6 km/h 2 mph /  3.2 km/h 62 % 0 in /  0.0 mm
00:40 61.3 °F /  16.3 °C 47.8 °F /  8.8 °C 29.9 in /  1012.8 hPa East 1 mph /  1.6 km/h 1 mph /  1.6 km/h 61 % 0 in /  0.0 mm
00:50 61.2 °F /  16.2 °C 47.7 °F /  8.7 °C 29.9 in /  1012.8 hPa ENE 1 mph /  1.6 km/h 2 mph /  3.2 km/h 61 % 0 in /  0.0 mm
01:00 61.2 °F /  16.2 °C 47.7 °F /  8.7 °C 29.9 in /  1013.8 hPa Calm     61 % 0 in /  0.0 mm
01:10 60.8 °F /  16.0 °C 47.3 °F /  8.5 °C 29.9 in /  1013.8 hPa Calm     61 % 0 in /  0.0 mm
01:20 60.6 °F /  15.9 °C 47.5 °F /  8.6 °C 29.9 in /  1013.8 hPa Calm     62 % 0 in /  0.0 mm
01:30 60.1 °F /  15.6 °C 46.9 °F /  8.3 °C 29.9 in /  1012.8 hPa WNW 1 mph /  1.6 km/h 1 mph /  1.6 km/h 62 % 0 in /  0.0 mm
01:40 59.9 °F /  15.5 °C 46.8 °F /  8.2 °C 29.9 in /  1012.8 hPa WSW 1 mph /  1.6 km/h 1 mph /  1.6 km/h 62 % 0 in /  0.0 mm
01:50 59.7 °F /  15.4 °C 46.8 °F /  8.2 °C 29.9 in /  1012.8 hPa SW 1 mph /  1.6 km/h 2 mph /  3.2 km/h 62 % 0 in /  0.0 mm
02:00 59.5 °F /  15.3 °C 46.6 °F /  8.1 °C 29.9 in /  1013.8 hPa Calm   2 mph /  3.2 km/h 62 % 0 in /  0.0 mm
02:10 60.1 °F /  15.6 °C 46.9 °F /  8.3 °C 29.9 in /  1013.8 hPa Calm     62 % 0 in /  0.0 mm
02:20 60.8 °F /  16.0 °C 47.3 °F /  8.5 °C 29.9 in /  1013.8 hPa Calm     61 % 0 in /  0.0 mm
02:30 61.7 °F /  16.5 °C 48 °F /  8.9 °C 29.9 in /  1012.8 hPa ESE 1 mph /  1.6 km/h 2 mph /  3.2 km/h 61 % 0 in /  0.0 mm
02:40 62.8 °F /  17.1 °C 48.2 °F /  9.0 °C 29.9 in /  1013.8 hPa Calm   1 mph /  1.6 km/h 59 % 0 in /  0.0 mm
02:50 63.7 °F /  17.6 °C 49.1 °F /  9.5 °C 29.9 in /  1013.8 hPa NE 1 mph /  1.6 km/h 2 mph /  3.2 km/h 59 % 0 in /  0.0 mm
03:00 64 °F /  17.8 °C 48.6 °F /  9.2 °C 30 in /  1014.8 hPa NE 1 mph /  1.6 km/h 1 mph /  1.6 km/h 57 % 0 in /  0.0 mm
03:10 64.8 °F /  18.2 °C 49.3 °F /  9.6 °C 29.9 in /  1013.8 hPa NNE 2 mph /  3.2 km/h 3 mph /  4.8 km/h 57 % 0 in /  0.0 mm
03:20 65.3 °F /  18.5 °C 49.3 °F /  9.6 °C 29.9 in /  1013.8 hPa NE 2 mph /  3.2 km/h 3 mph /  4.8 km/h 56 % 0 in /  0.0 mm
03:30 66.2 °F /  19.0 °C 49.1 °F /  9.5 °C 30 in /  1014.8 hPa ENE 1 mph /  1.6 km/h 3 mph /  4.8 km/h 54 % 0 in /  0.0 mm
03:40 67.8 °F /  19.9 °C 50.5 °F /  10.3 °C 29.9 in /  1013.8 hPa Calm   2 mph /  3.2 km/h 54 % 0 in /  0.0 mm
03:50 68 °F /  20.0 °C 50.7 °F /  10.4 °C 29.9 in /  1013.8 hPa ENE 2 mph /  3.2 km/h 3 mph /  4.8 km/h 54 % 0 in /  0.0 mm
04:00 68.9 °F /  20.5 °C 51.1 °F /  10.6 °C 30 in /  1014.8 hPa ENE 2 mph /  3.2 km/h 3 mph /  4.8 km/h 53 % 0 in /  0.0 mm
04:10 69.4 °F /  20.8 °C 51.1 °F /  10.6 °C 30 in /  1014.8 hPa ENE 1 mph /  1.6 km/h 4 mph /  6.4 km/h 52 % 0 in /  0.0 mm
04:20 69.8 °F /  21.0 °C 51.4 °F /  10.8 °C 30 in /  1014.8 hPa NE 2 mph /  3.2 km/h 3 mph /  4.8 km/h 52 % 0 in /  0.0 mm
04:30 70.5 °F /  21.4 °C 51.4 °F /  10.8 °C 30 in /  1014.8 hPa NE 2 mph /  3.2 km/h 4 mph /  6.4 km/h 51 % 0 in /  0.0 mm
04:40 71.1 °F /  21.7 °C 51.4 °F /  10.8 °C 30 in /  1014.8 hPa ENE 2 mph /  3.2 km/h 3 mph /  4.8 km/h 50 % 0 in /  0.0 mm
04:50 72.7 °F /  22.6 °C 53.1 °F /  11.7 °C 30 in /  1014.8 hPa Calm   2 mph /  3.2 km/h 50 % 0 in /  0.0 mm
09:59 72.9 °F /  22.7 °C 52.5 °F /  11.4 °C 30 in /  1014.8 hPa ESE 3.5 mph /  5.6 km/h 3.5 mph /  5.6 km/h 49 % 0 in /  0.0 mm
10:04 72.9 °F /  22.7 °C 52.5 °F /  11.4 °C 30 in /  1014.8 hPa SE 3.5 mph /  5.6 km/h 3.5 mph /  5.6 km/h 49 % 0 in /  0.0 mm
10:09 73 °F /  22.8 °C 52.7 °F /  11.5 °C 30 in /  1014.8 hPa NE 5.8 mph /  9.3 km/h 5.8 mph /  9.3 km/h 49 % 0 in /  0.0 mm
10:14 73.6 °F /  23.1 °C 52.7 °F /  11.5 °C 30 in /  1014.8 hPa NNE 5.8 mph /  9.3 km/h 5.8 mph /  9.3 km/h 48 % 0 in /  0.0 mm
10:19 73.8 °F /  23.2 °C 53.4 °F /  11.9 °C 30 in /  1014.8 hPa East 3.5 mph /  5.6 km/h 3.5 mph /  5.6 km/h 49 % 0 in /  0.0 mm
10:24 73.9 °F /  23.3 °C 53.6 °F /  12.0 °C 30 in /  1014.8 hPa NNE 5.8 mph /  9.3 km/h 5.8 mph /  9.3 km/h 49 % 0 in /  0.0 mm
10:29 74.3 °F /  23.5 °C 54 °F /  12.2 °C 30 in /  1014.8 hPa ENE 5.8 mph /  9.3 km/h 5.8 mph /  9.3 km/h 49 % 0 in /  0.0 mm
10:34 74.7 °F /  23.7 °C 54.1 °F /  12.3 °C 30 in /  1014.8 hPa ESE 3.5 mph /  5.6 km/h 3.5 mph /  5.6 km/h 49 % 0 in /  0.0 mm
10:39 75.6 °F /  24.2 °C 55 °F /  12.8 °C 29.9 in /  1013.8 hPa ESE 5.8 mph /  9.3 km/h 5.8 mph /  9.3 km/h 49 % 0 in /  0.0 mm
10:44 76.3 °F /  24.6 °C 55.8 °F /  13.2 °C 29.9 in /  1013.8 hPa ENE 3.5 mph /  5.6 km/h 3.5 mph /  5.6 km/h 49 % 0 in /  0.0 mm
10:45 76.3 °F /  24.6 °C 55.8 °F /  13.2 °C 29.9 in /  1013.8 hPa ENE 2 mph /  3.2 km/h 5 mph /  8.0 km/h 49 % 0 in /  0.0 mm
10:50 76.1 °F /  24.5 °C 55.6 °F /  13.1 °C 29.9 in /  1013.8 hPa East 2 mph /  3.2 km/h 7 mph /  11.3 km/h 49 % 0 in /  0.0 mm
10:55 76.5 °F /  24.7 °C 55.2 °F /  12.9 °C 30 in /  1014.8 hPa ESE 5 mph /  8.0 km/h 7 mph /  11.3 km/h 48 % 0 in /  0.0 mm
11:00 76.8 °F /  24.9 °C 55.6 °F /  13.1 °C 30 in /  1014.8 hPa ENE 3 mph /  4.8 km/h 4 mph /  6.4 km/h 48 % 0 in /  0.0 mm
11:05 76.8 °F /  24.9 °C 55 °F /  12.8 °C 30 in /  1014.8 hPa ESE 4.9 mph /  7.9 km/h 4.9 mph /  7.9 km/h 47 % 0 in /  0.0 mm
11:10 77.9 °F /  25.5 °C 55.9 °F /  13.3 °C 29.9 in /  1013.8 hPa East 5.6 mph /  9.0 km/h 5.6 mph /  9.0 km/h 47 % 0 in /  0.0 mm
11:15 77 °F /  25.0 °C 54.7 °F /  12.6 °C 29.9 in /  1013.8 hPa ESE 6 mph /  9.7 km/h 8 mph /  12.9 km/h 46 % 0 in /  0.0 mm
11:20 77.9 °F /  25.5 °C 55.6 °F /  13.1 °C 29.9 in /  1013.8 hPa East 3 mph /  4.8 km/h 6 mph /  9.7 km/h 46 % 0 in /  0.0 mm
11:25 77.2 °F /  25.1 °C 54.9 °F /  12.7 °C 29.9 in /  1013.8 hPa ESE 6 mph /  9.7 km/h 7 mph /  11.3 km/h 46 % 0 in /  0.0 mm
11:30 78.4 °F /  25.8 °C 55.9 °F /  13.3 °C 29.9 in /  1013.8 hPa ESE 5.8 mph /  9.3 km/h 5.8 mph /  9.3 km/h 46 % 0 in /  0.0 mm
11:35 79.9 °F /  26.6 °C 56.7 °F /  13.7 °C 29.9 in /  1013.8 hPa SSE 4.6 mph /  7.4 km/h 4.6 mph /  7.4 km/h 45 % 0 in /  0.0 mm
11:40 80.1 °F /  26.7 °C 56.8 °F /  13.8 °C 29.9 in /  1013.8 hPa ESE 6.4 mph /  10.3 km/h 6.4 mph /  10.3 km/h 45 % 0 in /  0.0 mm
11:45 79.2 °F /  26.2 °C 55.4 °F /  13.0 °C 29.9 in /  1013.8 hPa East 4.6 mph /  7.4 km/h 4.6 mph /  7.4 km/h 44 % 0 in /  0.0 mm
11:50 79.3 °F /  26.3 °C 54.9 °F /  12.7 °C 29.9 in /  1013.8 hPa ENE 5.8 mph /  9.3 km/h 5.8 mph /  9.3 km/h 43 % 0 in /  0.0 mm
11:55 78.8 °F /  26.0 °C 55 °F /  12.8 °C 29.9 in /  1013.8 hPa ESE 5.8 mph /  9.3 km/h 5.8 mph /  9.3 km/h 44 % 0 in /  0.0 mm
12:00 79.7 °F /  26.5 °C 55.9 °F /  13.3 °C 29.9 in /  1013.8 hPa NNE 5.6 mph /  9.0 km/h 5.6 mph /  9.0 km/h 44 % 0 in /  0.0 mm
12:05 80.4 °F /  26.9 °C 56.5 °F /  13.6 °C 29.9 in /  1013.8 hPa ESE 4.6 mph /  7.4 km/h 4.6 mph /  7.4 km/h 44 % 0 in /  0.0 mm
12:10 80.4 °F /  26.9 °C 56.5 °F /  13.6 °C 29.9 in /  1013.8 hPa North 5.6 mph /  9.0 km/h 5.6 mph /  9.0 km/h 44 % 0 in /  0.0 mm
12:15 80.2 °F /  26.8 °C 56.3 °F /  13.5 °C 29.9 in /  1013.8 hPa ESE 8.1 mph /  13.0 km/h 8.1 mph /  13.0 km/h 44 % 0 in /  0.0 mm
12:20 80.4 °F /  26.9 °C 56.5 °F /  13.6 °C 29.9 in /  1013.8 hPa East 5.8 mph /  9.3 km/h 5.8 mph /  9.3 km/h 44 % 0 in /  0.0 mm
12:25 81.1 °F /  27.3 °C 56.5 °F /  13.6 °C 29.9 in /  1013.8 hPa ESE 8.1 mph /  13.0 km/h 8.1 mph /  13.0 km/h 43 % 0 in /  0.0 mm
12:30 81.5 °F /  27.5 °C 56.1 °F /  13.4 °C 29.9 in /  1013.8 hPa NE 5.8 mph /  9.3 km/h 5.8 mph /  9.3 km/h 42 % 0 in /  0.0 mm
12:35 80.8 °F /  27.1 °C 55.6 °F /  13.1 °C 29.9 in /  1013.8 hPa ENE 5.9 mph /  9.5 km/h 5.9 mph /  9.5 km/h 42 % 0 in /  0.0 mm
12:40 80.4 °F /  26.9 °C 55.9 °F /  13.3 °C 29.9 in /  1013.8 hPa North 9.2 mph /  14.8 km/h 9.2 mph /  14.8 km/h 43 % 0 in /  0.0 mm
12:45 80.8 °F /  27.1 °C 55.6 °F /  13.1 °C 29.9 in /  1013.8 hPa ESE 6.9 mph /  11.1 km/h 6.9 mph /  11.1 km/h 42 % 0 in /  0.0 mm
12:50 80.8 °F /  27.1 °C 55.6 °F /  13.1 °C 29.9 in /  1013.8 hPa ESE 8.1 mph /  13.0 km/h 8.1 mph /  13.0 km/h 42 % 0 in /  0.0 mm
12:55 80.6 °F /  27.0 °C 55.4 °F /  13.0 °C 29.9 in /  1013.8 hPa East 9.2 mph /  14.8 km/h 9.2 mph /  14.8 km/h 42 % 0 in /  0.0 mm
13:00 80.6 °F /  27.0 °C 55.4 °F /  13.0 °C 29.9 in /  1013.8 hPa ENE 9.2 mph /  14.8 km/h 9.2 mph /  14.8 km/h 42 % 0 in /  0.0 mm
13:05 80.1 °F /  26.7 °C 55.6 °F /  13.1 °C 29.9 in /  1013.8 hPa ENE 8.1 mph /  13.0 km/h 8.1 mph /  13.0 km/h 43 % 0 in /  0.0 mm
13:10 80.6 °F /  27.0 °C 55.9 °F /  13.3 °C 29.9 in /  1012.8 hPa East 4.6 mph /  7.4 km/h 4.6 mph /  7.4 km/h 43 % 0 in /  0.0 mm
13:15 80.2 °F /  26.8 °C 56.3 °F /  13.5 °C 29.9 in /  1012.8 hPa ESE 10.4 mph /  16.7 km/h 10.4 mph /  16.7 km/h 44 % 0 in /  0.0 mm
13:20 80.1 °F /  26.7 °C 56.1 °F /  13.4 °C 29.9 in /  1012.8 hPa ESE 11.5 mph /  18.5 km/h 11.5 mph /  18.5 km/h 44 % 0 in /  0.0 mm
13:25 81 °F /  27.2 °C 56.5 °F /  13.6 °C 29.9 in /  1013.8 hPa ESE 10.4 mph /  16.7 km/h 10.4 mph /  16.7 km/h 43 % 0 in /  0.0 mm
13:30 80.1 °F /  26.7 °C 56.1 °F /  13.4 °C 29.9 in /  1013.8 hPa NE 10.4 mph /  16.7 km/h 10.4 mph /  16.7 km/h 44 % 0 in /  0.0 mm
13:35 80.8 °F /  27.1 °C 56.1 °F /  13.4 °C 29.9 in /  1013.8 hPa ENE 8.1 mph /  13.0 km/h 8.1 mph /  13.0 km/h 43 % 0 in /  0.0 mm
13:40 80.4 °F /  26.9 °C 56.5 °F /  13.6 °C 29.9 in /  1013.8 hPa ESE 6.9 mph /  11.1 km/h 6.9 mph /  11.1 km/h 44 % 0 in /  0.0 mm
13:45 80.4 °F /  26.9 °C 56.5 °F /  13.6 °C 29.9 in /  1013.8 hPa East 10.4 mph /  16.7 km/h 10.4 mph /  16.7 km/h 44 % 0 in /  0.0 mm
13:50 80.2 °F /  26.8 °C 56.3 °F /  13.5 °C 29.9 in /  1013.8 hPa ESE 10.7 mph /  17.2 km/h 10.7 mph /  17.2 km/h 44 % 0 in /  0.0 mm
13:55 80.4 °F /  26.9 °C 56.5 °F /  13.6 °C 29.9 in /  1013.8 hPa ESE 8.1 mph /  13.0 km/h 8.1 mph /  13.0 km/h 44 % 0 in /  0.0 mm
14:00 80.1 °F /  26.7 °C 56.1 °F /  13.4 °C 29.9 in /  1013.8 hPa ESE 10.4 mph /  16.7 km/h 10.4 mph /  16.7 km/h 44 % 0 in /  0.0 mm
14:05 79.9 °F /  26.6 °C 55.9 °F /  13.3 °C 29.9 in /  1013.8 hPa ESE 9.4 mph /  15.1 km/h 9.4 mph /  15.1 km/h 44 % 0 in /  0.0 mm
14:10 79.9 °F /  26.6 °C 56.7 °F /  13.7 °C 29.9 in /  1013.8 hPa ENE 10.4 mph /  16.7 km/h 10.4 mph /  16.7 km/h 45 % 0 in /  0.0 mm
14:15 79.7 °F /  26.5 °C 56.5 °F /  13.6 °C 29.9 in /  1013.8 hPa ENE 12.7 mph /  20.4 km/h 12.7 mph /  20.4 km/h 45 % 0 in /  0.0 mm
14:20 80.1 °F /  26.7 °C 56.8 °F /  13.8 °C 29.9 in /  1013.8 hPa ESE 8.5 mph /  13.7 km/h 8.5 mph /  13.7 km/h 45 % 0 in /  0.0 mm
14:25 80.2 °F /  26.8 °C 57.6 °F /  14.2 °C 30 in /  1014.8 hPa ENE 9.2 mph /  14.8 km/h 9.2 mph /  14.8 km/h 46 % 0 in /  0.0 mm
14:30 79.2 °F /  26.2 °C 56.7 °F /  13.7 °C 30 in /  1014.8 hPa ESE 10.4 mph /  16.7 km/h 10.4 mph /  16.7 km/h 46 % 0 in /  0.0 mm
14:35 79.9 °F /  26.6 °C 57.4 °F /  14.1 °C 30 in /  1014.8 hPa ENE 10.4 mph /  16.7 km/h 10.4 mph /  16.7 km/h 46 % 0 in /  0.0 mm
14:40 79 °F /  26.1 °C 56.5 °F /  13.6 °C 29.9 in /  1013.8 hPa East 11.4 mph /  18.3 km/h 11.4 mph /  18.3 km/h 46 % 0 in /  0.0 mm
14:45 79.3 °F /  26.3 °C 57.4 °F /  14.1 °C 29.9 in /  1013.8 hPa ESE 9.2 mph /  14.8 km/h 9.2 mph /  14.8 km/h 47 % 0 in /  0.0 mm
14:50 79 °F /  26.1 °C 57 °F /  13.9 °C 29.9 in /  1013.8 hPa ENE 9.2 mph /  14.8 km/h 9.2 mph /  14.8 km/h 47 % 0 in /  0.0 mm
14:51 79 °F /  26.1 °C 57 °F /  13.9 °C 29.9 in /  1013.8 hPa SSE 6.9 mph /  11.1 km/h 6.9 mph /  11.1 km/h 47 % 0 in /  0.0 mm
14:56 79 °F /  26.1 °C 57 °F /  13.9 °C 29.9 in /  1013.8 hPa East 8.1 mph /  13.0 km/h 8.1 mph /  13.0 km/h 47 % 0 in /  0.0 mm
15:01 79.2 °F /  26.2 °C 57.2 °F /  14.0 °C 29.9 in /  1013.8 hPa ESE 10.4 mph /  16.7 km/h 10.4 mph /  16.7 km/h 47 % 0 in /  0.0 mm
15:06 78.8 °F /  26.0 °C 56.8 °F /  13.8 °C 29.9 in /  1013.8 hPa ESE 10.4 mph /  16.7 km/h 10.4 mph /  16.7 km/h 47 % 0 in /  0.0 mm
15:11 78.4 °F /  25.8 °C 57 °F /  13.9 °C 29.9 in /  1013.8 hPa ENE 6.9 mph /  11.1 km/h 6.9 mph /  11.1 km/h 48 % 0 in /  0.0 mm
15:16 78.3 °F /  25.7 °C 56.5 °F /  13.6 °C 29.9 in /  1013.8 hPa East 11.5 mph /  18.5 km/h 11.5 mph /  18.5 km/h 47 % 0 in /  0.0 mm
15:21 78.3 °F /  25.7 °C 57 °F /  13.9 °C 29.9 in /  1013.8 hPa SE 10.4 mph /  16.7 km/h 10.4 mph /  16.7 km/h 48 % 0 in /  0.0 mm
15:26 78.1 °F /  25.6 °C 56.8 °F /  13.8 °C 29.9 in /  1013.8 hPa NNE 10.4 mph /  16.7 km/h 10.4 mph /  16.7 km/h 48 % 0 in /  0.0 mm
15:31 77.7 °F /  25.4 °C 56.5 °F /  13.6 °C 29.9 in /  1013.8 hPa SE 10.4 mph /  16.7 km/h 10.4 mph /  16.7 km/h 48 % 0 in /  0.0 mm
15:36 78.3 °F /  25.7 °C 57 °F /  13.9 °C 29.9 in /  1013.8 hPa ESE 9.2 mph /  14.8 km/h 9.2 mph /  14.8 km/h 48 % 0 in /  0.0 mm
15:41 77.7 °F /  25.4 °C 56.5 °F /  13.6 °C 29.9 in /  1013.8 hPa ESE 6.9 mph /  11.1 km/h 6.9 mph /  11.1 km/h 48 % 0 in /  0.0 mm
15:46 77.2 °F /  25.1 °C 55.9 °F /  13.3 °C 29.9 in /  1013.8 hPa East 10.4 mph /  16.7 km/h 10.4 mph /  16.7 km/h 48 % 0 in /  0.0 mm
15:51 77.5 °F /  25.3 °C 56.3 °F /  13.5 °C 29.9 in /  1013.8 hPa ENE 9.2 mph /  14.8 km/h 9.2 mph /  14.8 km/h 48 % 0 in /  0.0 mm
15:56 78.6 °F /  25.9 °C 57.4 °F /  14.1 °C 29.9 in /  1013.8 hPa East 5.8 mph /  9.3 km/h 5.8 mph /  9.3 km/h 48 % 0 in /  0.0 mm
16:01 78.1 °F /  25.6 °C 56.8 °F /  13.8 °C 29.9 in /  1013.8 hPa East 12.7 mph /  20.4 km/h 12.7 mph /  20.4 km/h 48 % 0 in /  0.0 mm
16:06 78.1 °F /  25.6 °C 56.8 °F /  13.8 °C 29.9 in /  1013.8 hPa SSE 8.5 mph /  13.7 km/h 8.5 mph /  13.7 km/h 48 % 0 in /  0.0 mm
16:11 77.9 °F /  25.5 °C 57.2 °F /  14.0 °C 29.9 in /  1013.8 hPa NE 8.7 mph /  14.0 km/h 8.7 mph /  14.0 km/h 49 % 0 in /  0.0 mm
16:16 78.3 °F /  25.7 °C 57.6 °F /  14.2 °C 29.9 in /  1013.8 hPa ESE 6.9 mph /  11.1 km/h 6.9 mph /  11.1 km/h 49 % 0 in /  0.0 mm
16:21 77.9 °F /  25.5 °C 57.2 °F /  14.0 °C 29.9 in /  1013.8 hPa ESE 9.2 mph /  14.8 km/h 9.2 mph /  14.8 km/h 49 % 0 in /  0.0 mm
16:26 77.9 °F /  25.5 °C 57.2 °F /  14.0 °C 29.9 in /  1013.8 hPa ENE 10.4 mph /  16.7 km/h 10.4 mph /  16.7 km/h 49 % 0 in /  0.0 mm
16:31 77.7 °F /  25.4 °C 57 °F /  13.9 °C 29.9 in /  1013.8 hPa NNW 8.1 mph /  13.0 km/h 8.1 mph /  13.0 km/h 49 % 0 in /  0.0 mm
16:36 77.5 °F /  25.3 °C 56.8 °F /  13.8 °C 29.9 in /  1013.8 hPa SE 6.9 mph /  11.1 km/h 6.9 mph /  11.1 km/h 49 % 0 in /  0.0 mm
16:41 77.2 °F /  25.1 °C 57 °F /  13.9 °C 29.9 in /  1013.8 hPa WNW 11.5 mph /  18.5 km/h 11.5 mph /  18.5 km/h 50 % 0 in /  0.0 mm
16:46 76.8 °F /  24.9 °C 57.4 °F /  14.1 °C 29.9 in /  1013.8 hPa ENE 6.9 mph /  11.1 km/h 6.9 mph /  11.1 km/h 51 % 0 in /  0.0 mm
16:51 77.2 °F /  25.1 °C 57 °F /  13.9 °C 29.9 in /  1012.8 hPa ENE 9.2 mph /  14.8 km/h 9.2 mph /  14.8 km/h 50 % 0 in /  0.0 mm
16:56 77.4 °F /  25.2 °C 57.4 °F /  14.1 °C 29.9 in /  1012.8 hPa ENE 5.9 mph /  9.5 km/h 5.9 mph /  9.5 km/h 50 % 0 in /  0.0 mm
17:01 77 °F /  25.0 °C 56.8 °F /  13.8 °C 29.9 in /  1012.8 hPa ENE 6.4 mph /  10.3 km/h 6.4 mph /  10.3 km/h 50 % 0 in /  0.0 mm
17:06 76.6 °F /  24.8 °C 57.2 °F /  14.0 °C 29.9 in /  1012.8 hPa ENE 10.4 mph /  16.7 km/h 10.4 mph /  16.7 km/h 51 % 0 in /  0.0 mm
17:11 76.8 °F /  24.9 °C 57.4 °F /  14.1 °C 29.9 in /  1012.8 hPa SE 5.8 mph /  9.3 km/h 5.8 mph /  9.3 km/h 51 % 0 in /  0.0 mm
17:16 77 °F /  25.0 °C 56.8 °F /  13.8 °C 29.9 in /  1012.8 hPa East 6.2 mph /  10.0 km/h 6.2 mph /  10.0 km/h 50 % 0 in /  0.0 mm
17:21 76.8 °F /  24.9 °C 56.8 °F /  13.8 °C 29.9 in /  1012.8 hPa NE 6.9 mph /  11.1 km/h 6.9 mph /  11.1 km/h 50 % 0 in /  0.0 mm
17:22 77 °F /  25.0 °C 56.5 °F /  13.6 °C 29.9 in /  1012.8 hPa ENE 6.9 mph /  11.1 km/h 6.9 mph /  11.1 km/h 49 % 0 in /  0.0 mm
17:27 77 °F /  25.0 °C 56.5 °F /  13.6 °C 29.9 in /  1012.8 hPa NE 9 mph /  14.5 km/h 9 mph /  14.5 km/h 49 % 0 in /  0.0 mm
17:32 76.8 °F /  24.9 °C 56.1 °F /  13.4 °C 29.9 in /  1012.8 hPa ENE 9.2 mph /  14.8 km/h 9.2 mph /  14.8 km/h 49 % 0 in /  0.0 mm
17:37 76.6 °F /  24.8 °C 55.9 °F /  13.3 °C 29.9 in /  1012.8 hPa East 8.1 mph /  13.0 km/h 8.1 mph /  13.0 km/h 49 % 0 in /  0.0 mm
17:42 76.8 °F /  24.9 °C 56.1 °F /  13.4 °C 29.9 in /  1012.8 hPa NNE 7.6 mph /  12.2 km/h 7.6 mph /  12.2 km/h 49 % 0 in /  0.0 mm
17:47 76.8 °F /  24.9 °C 55 °F /  12.8 °C 29.9 in /  1012.8 hPa NE 6.9 mph /  11.1 km/h 6.9 mph /  11.1 km/h 47 % 0 in /  0.0 mm
17:52 77.2 °F /  25.1 °C 54.1 °F /  12.3 °C 29.9 in /  1012.8 hPa ESE 10.4 mph /  16.7 km/h 10.4 mph /  16.7 km/h 45 % 0 in /  0.0 mm
17:57 77 °F /  25.0 °C 54.7 °F /  12.6 °C 29.9 in /  1012.8 hPa ENE 6.9 mph /  11.1 km/h 6.9 mph /  11.1 km/h 46 % 0 in /  0.0 mm
18:02 77.4 °F /  25.2 °C 55 °F /  12.8 °C 29.9 in /  1012.8 hPa SE 6.2 mph /  10.0 km/h 6.2 mph /  10.0 km/h 46 % 0 in /  0.0 mm
18:07 77.4 °F /  25.2 °C 55 °F /  12.8 °C 29.9 in /  1013.8 hPa North 9.2 mph /  14.8 km/h 9.2 mph /  14.8 km/h 46 % 0 in /  0.0 mm
18:12 77.4 °F /  25.2 °C 55.6 °F /  13.1 °C 29.9 in /  1013.8 hPa SE 5.8 mph /  9.3 km/h 5.8 mph /  9.3 km/h 47 % 0 in /  0.0 mm
18:17 77.4 °F /  25.2 °C 55.6 °F /  13.1 °C 29.9 in /  1013.8 hPa ESE 6.9 mph /  11.1 km/h 6.9 mph /  11.1 km/h 47 % 0 in /  0.0 mm
18:22 77 °F /  25.0 °C 55.2 °F /  12.9 °C 29.9 in /  1013.8 hPa NE 5.8 mph /  9.3 km/h 5.8 mph /  9.3 km/h 47 % 0 in /  0.0 mm
18:27 77 °F /  25.0 °C 55.2 °F /  12.9 °C 29.9 in /  1013.8 hPa North 5.8 mph /  9.3 km/h 5.8 mph /  9.3 km/h 47 % 0 in /  0.0 mm
18:37 77 °F /  25.0 °C 55.2 °F /  12.9 °C 29.9 in /  1013.8 hPa ENE 3.8 mph /  6.1 km/h 3.8 mph /  6.1 km/h 47 % 0 in /  0.0 mm
18:42 77 °F /  25.0 °C 55.2 °F /  12.9 °C 29.9 in /  1013.8 hPa East 4.6 mph /  7.4 km/h 4.6 mph /  7.4 km/h 47 % 0 in /  0.0 mm
18:47 76.6 °F /  24.8 °C 55.6 °F /  13.1 °C 29.9 in /  1013.8 hPa East 6.9 mph /  11.1 km/h 6.9 mph /  11.1 km/h 48 % 0 in /  0.0 mm
18:52 76.8 °F /  24.9 °C 55.6 °F /  13.1 °C 29.9 in /  1013.8 hPa ESE 5.8 mph /  9.3 km/h 5.8 mph /  9.3 km/h 48 % 0 in /  0.0 mm
18:57 76.6 °F /  24.8 °C 55.6 °F /  13.1 °C 29.9 in /  1013.8 hPa East 5.8 mph /  9.3 km/h 5.8 mph /  9.3 km/h 48 % 0 in /  0.0 mm
19:02 76.1 °F /  24.5 °C 55 °F /  12.8 °C 29.9 in /  1013.8 hPa East 5.8 mph /  9.3 km/h 5.8 mph /  9.3 km/h 48 % 0 in /  0.0 mm
19:07 75.9 °F /  24.4 °C 54.9 °F /  12.7 °C 29.9 in /  1013.8 hPa ENE 5.8 mph /  9.3 km/h 5.8 mph /  9.3 km/h 48 % 0 in /  0.0 mm
19:12 75.6 °F /  24.2 °C 55.6 °F /  13.1 °C 29.9 in /  1013.8 hPa ESE 7.6 mph /  12.2 km/h 7.6 mph /  12.2 km/h 50 % 0 in /  0.0 mm
19:17 74.8 °F /  23.8 °C 55.6 °F /  13.1 °C 29.9 in /  1013.8 hPa ESE 10.4 mph /  16.7 km/h 10.4 mph /  16.7 km/h 51 % 0 in /  0.0 mm
19:20 63.3 °F /  17.4 °C 56.3 °F /  13.5 °C 30 in /  1014.8 hPa NE 3 mph /  4.8 km/h 4 mph /  6.4 km/h 78 % 0 in /  0.0 mm
19:22 74.7 °F /  23.7 °C 55.2 °F /  12.9 °C 29.9 in /  1012.8 hPa NW 6.2 mph /  10.0 km/h 6.2 mph /  10.0 km/h 51 % 0 in /  0.0 mm
19:27 74.3 °F /  23.5 °C 55.6 °F /  13.1 °C 29.9 in /  1012.8 hPa ESE 5.8 mph /  9.3 km/h 6.7 mph /  10.8 km/h 52 % 0 in /  0.0 mm
19:30 63.1 °F /  17.3 °C 56.1 °F /  13.4 °C 30 in /  1014.8 hPa NE 3 mph /  4.8 km/h 4 mph /  6.4 km/h 78 % 0 in /  0.0 mm
19:32 73.9 °F /  23.3 °C 55.8 °F /  13.2 °C 29.9 in /  1012.8 hPa ENE 6.9 mph /  11.1 km/h 6.9 mph /  11.1 km/h 53 % 0 in /  0.0 mm
19:37 73.6 °F /  23.1 °C 56.5 °F /  13.6 °C 29.9 in /  1013.8 hPa ENE 6.2 mph /  10.0 km/h 6.2 mph /  10.0 km/h 55 % 0 in /  0.0 mm
19:40 63.1 °F /  17.3 °C 56.5 °F /  13.6 °C 30 in /  1014.8 hPa NNE 2 mph /  3.2 km/h 3 mph /  4.8 km/h 79 % 0 in /  0.0 mm
19:42 73.4 °F /  23.0 °C 55.8 °F /  13.2 °C 29.9 in /  1013.8 hPa SE 5.8 mph /  9.3 km/h 5.8 mph /  9.3 km/h 54 % 0 in /  0.0 mm
19:47 73.2 °F /  22.9 °C 56.1 °F /  13.4 °C 29.9 in /  1013.8 hPa NNE 5.8 mph /  9.3 km/h 5.8 mph /  9.3 km/h 55 % 0 in /  0.0 mm
19:50 63.1 °F /  17.3 °C 56.5 °F /  13.6 °C 30 in /  1014.8 hPa NE 2 mph /  3.2 km/h 3 mph /  4.8 km/h 79 % 0 in /  0.0 mm
19:52 73 °F /  22.8 °C 56.5 °F /  13.6 °C 29.9 in /  1013.8 hPa NNE 6.9 mph /  11.1 km/h 6.9 mph /  11.1 km/h 56 % 0 in /  0.0 mm
19:57 72.9 °F /  22.7 °C 56.1 °F /  13.4 °C 29.9 in /  1013.8 hPa ENE 4.6 mph /  7.4 km/h 4.6 mph /  7.4 km/h 56 % 0 in /  0.0 mm
20:00 63.1 °F /  17.3 °C 56.5 °F /  13.6 °C 30 in /  1015.8 hPa NE 2 mph /  3.2 km/h 3 mph /  4.8 km/h 79 % 0 in /  0.0 mm
20:02 72.7 °F /  22.6 °C 56.1 °F /  13.4 °C 29.9 in /  1013.8 hPa ENE 5.8 mph /  9.3 km/h 5.8 mph /  9.3 km/h 56 % 0 in /  0.0 mm
20:07 72.5 °F /  22.5 °C 56.5 °F /  13.6 °C 29.9 in /  1013.8 hPa NE 4.5 mph /  7.2 km/h 4.5 mph /  7.2 km/h 57 % 0 in /  0.0 mm
20:10 62.8 °F /  17.1 °C 56.5 °F /  13.6 °C 30 in /  1015.8 hPa NE 3 mph /  4.8 km/h 4 mph /  6.4 km/h 80 % 0 in /  0.0 mm
20:12 72.5 °F /  22.5 °C 55.9 °F /  13.3 °C 29.9 in /  1013.8 hPa NNE 5.8 mph /  9.3 km/h 5.8 mph /  9.3 km/h 56 % 0 in /  0.0 mm
20:17 72.3 °F /  22.4 °C 55.8 °F /  13.2 °C 29.9 in /  1013.8 hPa East 4.6 mph /  7.4 km/h 4.6 mph /  7.4 km/h 56 % 0 in /  0.0 mm
20:20 62.8 °F /  17.1 °C 56.5 °F /  13.6 °C 30 in /  1015.8 hPa NE 3 mph /  4.8 km/h 3 mph /  4.8 km/h 80 % 0 in /  0.0 mm
20:22 72.1 °F /  22.3 °C 55.6 °F /  13.1 °C 29.9 in /  1012.8 hPa ESE 4.6 mph /  7.4 km/h 4.6 mph /  7.4 km/h 56 % 0 in /  0.0 mm
20:27 72 °F /  22.2 °C 55.4 °F /  13.0 °C 29.9 in /  1012.8 hPa ENE 5.8 mph /  9.3 km/h 5.8 mph /  9.3 km/h 56 % 0 in /  0.0 mm
20:30 62.8 °F /  17.1 °C 56.5 °F /  13.6 °C 30 in /  1015.8 hPa NE 2 mph /  3.2 km/h 4 mph /  6.4 km/h 80 % 0 in /  0.0 mm
20:32 71.6 °F /  22.0 °C 55.6 °F /  13.1 °C 29.9 in /  1012.8 hPa NNW 3.5 mph /  5.6 km/h 3.5 mph /  5.6 km/h 57 % 0 in /  0.0 mm
20:37 71.2 °F /  21.8 °C 56.1 °F /  13.4 °C 29.9 in /  1013.8 hPa East 5.8 mph /  9.3 km/h 5.8 mph /  9.3 km/h 59 % 0 in /  0.0 mm
20:40 62.8 °F /  17.1 °C 56.5 °F /  13.6 °C 30 in /  1015.8 hPa NE 3 mph /  4.8 km/h 4 mph /  6.4 km/h 80 % 0 in /  0.0 mm
20:42 71.1 °F /  21.7 °C 55.9 °F /  13.3 °C 29.9 in /  1013.8 hPa ENE 3.5 mph /  5.6 km/h 3.5 mph /  5.6 km/h 59 % 0 in /  0.0 mm
20:47 70.7 °F /  21.5 °C 56.1 °F /  13.4 °C 29.9 in /  1013.8 hPa NNE 4.6 mph /  7.4 km/h 4.6 mph /  7.4 km/h 60 % 0 in /  0.0 mm
20:50 63 °F /  17.2 °C 57 °F /  13.9 °C 30 in /  1015.8 hPa NE 3 mph /  4.8 km/h 4 mph /  6.4 km/h 81 % 0 in /  0.0 mm
20:52 70.3 °F /  21.3 °C 56.1 °F /  13.4 °C 29.9 in /  1013.8 hPa NNE 4.6 mph /  7.4 km/h 4.6 mph /  7.4 km/h 61 % 0 in /  0.0 mm
20:57 70 °F /  21.1 °C 55.9 °F /  13.3 °C 29.9 in /  1013.8 hPa NNE 4.6 mph /  7.4 km/h 4.6 mph /  7.4 km/h 61 % 0 in /  0.0 mm
21:00 63 °F /  17.2 °C 57 °F /  13.9 °C 30 in /  1015.8 hPa NE 3 mph /  4.8 km/h 4 mph /  6.4 km/h 81 % 0 in /  0.0 mm
21:02 69.8 °F /  21.0 °C 56.1 °F /  13.4 °C 29.9 in /  1013.8 hPa NNE 4.6 mph /  7.4 km/h 4.6 mph /  7.4 km/h 62 % 0 in /  0.0 mm
21:07 69.3 °F /  20.7 °C 56.1 °F /  13.4 °C 29.9 in /  1012.8 hPa ESE 3.5 mph /  5.6 km/h 3.5 mph /  5.6 km/h 63 % 0 in /  0.0 mm
21:10 62.8 °F /  17.1 °C 56.8 °F /  13.8 °C 30 in /  1015.8 hPa NE 3 mph /  4.8 km/h 4 mph /  6.4 km/h 81 % 0 in /  0.0 mm
21:12 69.1 °F /  20.6 °C 55.9 °F /  13.3 °C 29.9 in /  1012.8 hPa ENE 4.6 mph /  7.4 km/h 4.6 mph /  7.4 km/h 63 % 0 in /  0.0 mm
21:17 68.7 °F /  20.4 °C 55.9 °F /  13.3 °C 29.9 in /  1012.8 hPa NNE 4.6 mph /  7.4 km/h 4.6 mph /  7.4 km/h 64 % 0 in /  0.0 mm
21:20 63 °F /  17.2 °C 57 °F /  13.9 °C 30 in /  1015.8 hPa NE 5 mph /  8.0 km/h 6 mph /  9.7 km/h 81 % 0 in /  0.0 mm
21:22 68.4 °F /  20.2 °C 55.8 °F /  13.2 °C 29.9 in /  1013.8 hPa NE 6 mph /  9.7 km/h 6 mph /  9.7 km/h 64 % 0 in /  0.0 mm
21:27 68.2 °F /  20.1 °C 55.9 °F /  13.3 °C 29.9 in /  1013.8 hPa NNE 3.5 mph /  5.6 km/h 3.5 mph /  5.6 km/h 65 % 0 in /  0.0 mm
21:30 63.1 °F /  17.3 °C 57.6 °F /  14.2 °C 30 in /  1015.8 hPa ENE 3 mph /  4.8 km/h 5 mph /  8.0 km/h 82 % 0 in /  0.0 mm
21:32 67.8 °F /  19.9 °C 56.5 °F /  13.6 °C 29.9 in /  1013.8 hPa ENE 3.8 mph /  6.1 km/h 3.8 mph /  6.1 km/h 67 % 0 in /  0.0 mm
21:37 67.6 °F /  19.8 °C 56.3 °F /  13.5 °C 29.9 in /  1012.8 hPa ENE 3.5 mph /  5.6 km/h 3.5 mph /  5.6 km/h 67 % 0 in /  0.0 mm
21:40 63.1 °F /  17.3 °C 57.6 °F /  14.2 °C 30 in /  1015.8 hPa ENE 3 mph /  4.8 km/h 4 mph /  6.4 km/h 82 % 0 in /  0.0 mm
21:42 67.5 °F /  19.7 °C 56.1 °F /  13.4 °C 29.9 in /  1012.8 hPa NNE 5.4 mph /  8.7 km/h 5.4 mph /  8.7 km/h 67 % 0 in /  0.0 mm
21:47 67.1 °F /  19.5 °C 56.1 °F /  13.4 °C 29.9 in /  1012.8 hPa ENE 4.6 mph /  7.4 km/h 4.6 mph /  7.4 km/h 68 % 0 in /  0.0 mm
21:50 63.1 °F /  17.3 °C 57.6 °F /  14.2 °C 30 in /  1015.8 hPa ENE 2 mph /  3.2 km/h 5 mph /  8.0 km/h 82 % 0 in /  0.0 mm
21:52 66.9 °F /  19.4 °C 55.9 °F /  13.3 °C 29.9 in /  1013.8 hPa ENE 2.3 mph /  3.7 km/h 2.4 mph /  3.9 km/h 68 % 0 in /  0.0 mm
21:57 66.7 °F /  19.3 °C 55.8 °F /  13.2 °C 29.9 in /  1013.8 hPa NNE 2.9 mph /  4.7 km/h 2.9 mph /  4.7 km/h 68 % 0 in /  0.0 mm
22:00 63.3 °F /  17.4 °C 57.7 °F /  14.3 °C 30 in /  1015.8 hPa ENE 3 mph /  4.8 km/h 7 mph /  11.3 km/h 82 % 0 in /  0.0 mm
22:02 66.6 °F /  19.2 °C 56.5 °F /  13.6 °C 29.9 in /  1013.8 hPa NNE 4.6 mph /  7.4 km/h 4.6 mph /  7.4 km/h 70 % 0 in /  0.0 mm
22:07 66.2 °F /  19.0 °C 56.1 °F /  13.4 °C 30 in /  1014.8 hPa NE 4.6 mph /  7.4 km/h 4.6 mph /  7.4 km/h 70 % 0 in /  0.0 mm
22:10 63.1 °F /  17.3 °C 57.6 °F /  14.2 °C 30 in /  1015.8 hPa ENE 3 mph /  4.8 km/h 5 mph /  8.0 km/h 82 % 0 in /  0.0 mm
22:12 66 °F /  18.9 °C 56.3 °F /  13.5 °C 30 in /  1014.8 hPa ENE 3.5 mph /  5.6 km/h 3.5 mph /  5.6 km/h 71 % 0 in /  0.0 mm
22:17 65.8 °F /  18.8 °C 56.7 °F /  13.7 °C 30 in /  1014.8 hPa ENE 4 mph /  6.4 km/h 4 mph /  6.4 km/h 72 % 0 in /  0.0 mm
22:20 63.3 °F /  17.4 °C 57.7 °F /  14.3 °C 30 in /  1015.8 hPa ENE 3 mph /  4.8 km/h 4 mph /  6.4 km/h 82 % 0 in /  0.0 mm
22:22 65.8 °F /  18.8 °C 56.7 °F /  13.7 °C 30 in /  1014.8 hPa NNE 3.5 mph /  5.6 km/h 3.5 mph /  5.6 km/h 72 % 0 in /  0.0 mm
22:27 65.7 °F /  18.7 °C 56.8 °F /  13.8 °C 30 in /  1014.8 hPa ENE 3.6 mph /  5.8 km/h 3.6 mph /  5.8 km/h 73 % 0 in /  0.0 mm
22:30 63.3 °F /  17.4 °C 57.7 °F /  14.3 °C 30 in /  1015.8 hPa ENE 3 mph /  4.8 km/h 5 mph /  8.0 km/h 82 % 0 in /  0.0 mm
22:32 65.7 °F /  18.7 °C 56.8 °F /  13.8 °C 30 in /  1014.8 hPa NNE 4.6 mph /  7.4 km/h 4.6 mph /  7.4 km/h 73 % 0 in /  0.0 mm
22:37 65.5 °F /  18.6 °C 56.7 °F /  13.7 °C 30 in /  1014.8 hPa NNE 3.5 mph /  5.6 km/h 3.5 mph /  5.6 km/h 73 % 0 in /  0.0 mm
22:40 63.3 °F /  17.4 °C 57.7 °F /  14.3 °C 30 in /  1015.8 hPa East 3 mph /  4.8 km/h 6 mph /  9.7 km/h 82 % 0 in /  0.0 mm
22:42 65.5 °F /  18.6 °C 56.7 °F /  13.7 °C 30 in /  1014.8 hPa NE 2.3 mph /  3.7 km/h 2.3 mph /  3.7 km/h 73 % 0 in /  0.0 mm
22:47 65.3 °F /  18.5 °C 56.8 °F /  13.8 °C 30 in /  1014.8 hPa ESE 2.4 mph /  3.9 km/h 2.4 mph /  3.9 km/h 74 % 0 in /  0.0 mm
22:50 63.3 °F /  17.4 °C 57.7 °F /  14.3 °C 30 in /  1015.8 hPa East 2 mph /  3.2 km/h 6 mph /  9.7 km/h 82 % 0 in /  0.0 mm
22:52 65.3 °F /  18.5 °C 56.8 °F /  13.8 °C 30 in /  1014.8 hPa NNE 2.3 mph /  3.7 km/h 2.4 mph /  3.9 km/h 74 % 0 in /  0.0 mm
22:57 65.3 °F /  18.5 °C 56.8 °F /  13.8 °C 30 in /  1014.8 hPa NNE 2.9 mph /  4.7 km/h 2.9 mph /  4.7 km/h 74 % 0 in /  0.0 mm
23:00 63.1 °F /  17.3 °C 57.6 °F /  14.2 °C 30 in /  1015.8 hPa East 3 mph /  4.8 km/h 6 mph /  9.7 km/h 82 % 0 in /  0.0 mm
23:02 65.3 °F /  18.5 °C 56.8 °F /  13.8 °C 30 in /  1014.8 hPa NE 3.5 mph /  5.6 km/h 3.5 mph /  5.6 km/h 74 % 0 in /  0.0 mm
23:07 65.3 °F /  18.5 °C 56.8 °F /  13.8 °C 30 in /  1014.8 hPa NE 2.9 mph /  4.7 km/h 2.9 mph /  4.7 km/h 74 % 0 in /  0.0 mm
23:10 63.3 °F /  17.4 °C 57.7 °F /  14.3 °C 30 in /  1015.8 hPa East 3 mph /  4.8 km/h 4 mph /  6.4 km/h 82 % 0 in /  0.0 mm
23:12 65.1 °F /  18.4 °C 56.7 °F /  13.7 °C 30 in /  1014.8 hPa NNE 3.5 mph /  5.6 km/h 3.5 mph /  5.6 km/h 74 % 0 in /  0.0 mm
23:17 65.1 °F /  18.4 °C 56.7 °F /  13.7 °C 30 in /  1014.8 hPa ENE 3.5 mph /  5.6 km/h 3.5 mph /  5.6 km/h 74 % 0 in /  0.0 mm
23:22 64.9 °F /  18.3 °C 56.8 °F /  13.8 °C 30 in /  1014.8 hPa NNE 4.6 mph /  7.4 km/h 4.6 mph /  7.4 km/h 75 % 0 in /  0.0 mm
23:27 64.8 °F /  18.2 °C 56.7 °F /  13.7 °C 30 in /  1014.8 hPa ENE 3.5 mph /  5.6 km/h 3.5 mph /  5.6 km/h 75 % 0 in /  0.0 mm
23:30 63.1 °F /  17.3 °C 57.6 °F /  14.2 °C 30 in /  1015.8 hPa ENE 3 mph /  4.8 km/h 4 mph /  6.4 km/h 82 % 0 in /  0.0 mm
23:32 64.6 °F /  18.1 °C 56.5 °F /  13.6 °C 30 in /  1014.8 hPa NE 3.6 mph /  5.8 km/h 3.6 mph /  5.8 km/h 75 % 0 in /  0.0 mm
23:37 64.2 °F /  17.9 °C 56.5 °F /  13.6 °C 30 in /  1014.8 hPa NNE 3.5 mph /  5.6 km/h 3.5 mph /  5.6 km/h 76 % 0 in /  0.0 mm
23:40 63.3 °F /  17.4 °C 57.4 °F /  14.1 °C 30 in /  1015.8 hPa ENE 2 mph /  3.2 km/h 5 mph /  8.0 km/h 81 % 0 in /  0.0 mm
23:42 64 °F /  17.8 °C 56.3 °F /  13.5 °C 30 in /  1014.8 hPa East 2.3 mph /  3.7 km/h 2.3 mph /  3.7 km/h 76 % 0 in /  0.0 mm
23:47 64 °F /  17.8 °C 56.3 °F /  13.5 °C 30 in /  1014.8 hPa NNE 4.6 mph /  7.4 km/h 4.6 mph /  7.4 km/h 76 % 0 in /  0.0 mm
23:50 63.3 °F /  17.4 °C 57.4 °F /  14.1 °C 30 in /  1015.8 hPa ENE 3 mph /  4.8 km/h 6 mph /  9.7 km/h 81 % 0 in /  0.0 mm
23:52 63.9 °F /  17.7 °C 56.5 °F /  13.6 °C 30 in /  1014.8 hPa ENE 2.3 mph /  3.7 km/h 2.3 mph /  3.7 km/h 77 % 0 in /  0.0 mm
23:57 63.7 °F /  17.6 °C 56.3 °F /  13.5 °C 30 in /  1014.8 hPa NNE 4.6 mph /  7.4 km/h 4.6 mph /  7.4 km/h 77 % 0 in /  0.0 mm
Meteo Sesrovires
Elogis d' Weather Underground - 3.75 mb

Guio original per  Jim McMurry - jmcmurry@mwt.net Adaptat per a la plantilla per  Wim van der Kuil - Leuven-Template.eu

Trobareu la nostra informacio del temps tambe a:

Weather Underground

AWEKAS